Time;durP1;ratioP1;P1;durP2;ratioP2;P2;SDS_P1;SDS_P2;PMS_P1;PMS_P2;Temp;Humidity;BMP_temperature;BMP_pressure;BME280_temperature;BME280_humidity;BME280_pressure;Samples;Min_cycle;Max_cycle;Signal;HPM_P1;HPM_P2
2022/06/29 00:02:06;;;;;;;;;;;;;;;;;;5113467;28;1893;-66
2022/06/29 00:04:31;;;;;;;;;;;;;;;;;;5113098;28;821;-66
2022/06/29 00:06:56;;;;;;;;;;;;;;;;;;5113433;28;895;-66
2022/06/29 00:09:21;;;;;;;;;;;;;;;;;;5112368;28;994;-67
2022/06/29 00:11:47;;;;;;;;;;;;;;;;;;5112024;28;826;-66
2022/06/29 00:14:12;;;;;;;;;;;;;;;;;;5113339;28;877;-66
2022/06/29 00:16:37;;;;;;;;;;;;;;;;;;5113003;28;742;-66
2022/06/29 00:19:02;;;;;;;;;;;;;;;;;;5112386;28;820;-66
2022/06/29 00:21:28;;;;;;;;;;;;;;;;;;5109122;28;1905;-66
2022/06/29 00:23:53;;;;;;;;;;;;;;;;;;5111163;28;762;-66
2022/06/29 00:26:18;;;;;;;;;;;;;;;;;;5110086;28;809;-66
2022/06/29 00:28:43;;;;;;;;;;;;;;;;;;5109306;28;1403;-67
2022/06/29 00:31:09;;;;;;;;;;;;;;;;;;5111462;28;954;-66
2022/06/29 00:33:34;;;;;;;;;;;;;;;;;;5110359;28;1248;-66
2022/06/29 00:35:59;;;;;;;;;;;;;;;;;;5110146;28;1437;-66
2022/06/29 00:38:24;;;;;;;;;;;;;;;;;;5111090;28;931;-66
2022/06/29 00:40:50;;;;;;;;;;;;;;;;;;5092716;28;1909;-67
2022/06/29 00:43:15;;;;;;;;;;;;;;;;;;5111591;28;813;-66
2022/06/29 00:45:40;;;;;;;;;;;;;;;;;;5110933;28;892;-66
2022/06/29 00:48:06;;;;;;;;;;;;;;;;;;5110546;28;1163;-66
2022/06/29 00:50:32;;;;;;;;;;;;;;;;;;5109907;28;1198;-67
2022/06/29 00:53:04;;;;;;;;;;;;;;;;;;5109502;28;1167;-66
2022/06/29 00:55:31;;;;;;;;;;;;;;;;;;5110370;28;1151;-66
2022/06/29 00:57:58;;;;;;;;;;;;;;;;;;5111162;28;757;-66
2022/06/29 01:00:23;;;;;;;;;;;;;;;;;;5110209;28;1258;-67
2022/06/29 01:02:48;;;;;;;;;;;;;;;;;;5110844;28;1953;-66
2022/06/29 01:05:14;;;;;;;;;;;;;;;;;;5110520;28;919;-67
2022/06/29 01:07:39;;;;;;;;;;;;;;;;;;5111338;28;844;-66
2022/06/29 01:10:05;;;;;;;;;;;;;;;;;;5111470;28;808;-66
2022/06/29 01:12:31;;;;;;;;;;;;;;;;;;5110943;28;863;-67
2022/06/29 01:14:56;;;;;;;;;;;;;;;;;;5109835;28;1067;-67
2022/06/29 01:17:22;;;;;;;;;;;;;;;;;;5111133;28;935;-68
2022/06/29 01:19:47;;;;;;;;;;;;;;;;;;5111284;28;895;-67
2022/06/29 01:22:13;;;;;;;;;;;;;;;;;;5109754;28;1944;-67
2022/06/29 01:24:38;;;;;;;;;;;;;;;;;;5110993;28;918;-67
2022/06/29 01:27:04;;;;;;;;;;;;;;;;;;5111827;28;861;-67
2022/06/29 01:29:30;;;;;;;;;;;;;;;;;;5110874;28;923;-67
2022/06/29 01:31:55;;;;;;;;;;;;;;;;;;5108962;28;1134;-67
2022/06/29 01:34:22;;;;;;;;;;;;;;;;;;5110131;28;1072;-67
2022/06/29 01:36:47;;;;;;;;;;;;;;;;;;5111073;28;833;-67
2022/06/29 01:39:12;;;;;;;;;;;;;;;;;;5108959;28;1220;-67
2022/06/29 01:41:37;;;;;;;;;;;;;;;;;;5108600;28;1969;-67
2022/06/29 01:44:03;;;;;;;;;;;;;;;;;;5111042;28;860;-67
2022/06/29 01:46:28;;;;;;;;;;;;;;;;;;5109026;28;1123;-68
2022/06/29 01:48:53;;;;;;;;;;;;;;;;;;5109014;28;955;-67
2022/06/29 01:51:18;;;;;;;;;;;;;;;;;;5108577;28;1444;-67
2022/06/29 01:53:44;;;;;;;;;;;;;;;;;;5110649;27;802;-67
2022/06/29 01:56:09;;;;;;;;;;;;;;;;;;5109660;28;967;-67
2022/06/29 01:58:34;;;;;;;;;;;;;;;;;;5110603;28;895;-67
2022/06/29 02:01:00;;;;;;;;;;;;;;;;;;5110446;28;1894;-67
2022/06/29 02:03:25;;;;;;;;;;;;;;;;;;5110259;28;896;-67
2022/06/29 02:05:50;;;;;;;;;;;;;;;;;;5113980;27;761;-66
2022/06/29 02:08:15;;;;;;;;;;;;;;;;;;5115326;28;864;-67
2022/06/29 02:10:40;;;;;;;;;;;;;;;;;;5112657;28;814;-67
2022/06/29 02:13:06;;;;;;;;;;;;;;;;;;5114064;28;1085;-67
2022/06/29 02:15:31;;;;;;;;;;;;;;;;;;5113350;28;900;-67
2022/06/29 02:17:56;;;;;;;;;;;;;;;;;;5113641;28;773;-67
2022/06/29 02:20:21;;;;;;;;;;;;;;;;;;5113164;28;812;-67
2022/06/29 02:22:47;;;;;;;;;;;;;;;;;;5113380;28;1969;-67
2022/06/29 02:25:12;;;;;;;;;;;;;;;;;;5113614;28;758;-67
2022/06/29 02:27:41;;;;;;;;;;;;;;;;;;5112036;28;1202;-67
2022/06/29 02:30:07;;;;;;;;;;;;;;;;;;5113607;28;936;-67
2022/06/29 02:35:17;;;;;;;;;;;;;;;;;;5113661;28;1072;-66
2022/06/29 02:37:42;;;;;;;;;;;;;;;;;;5111593;28;1070;-67
2022/06/29 02:40:08;;;;;;;;;;;;;;;;;;5095396;28;1238;-66
2022/06/29 02:42:33;;;;;;;;;;;;;;;;;;5111231;28;1957;-66
2022/06/29 02:44:58;;;;;;;;;;;;;;;;;;5112877;28;1049;-66
2022/06/29 02:47:23;;;;;;;;;;;;;;;;;;5111901;28;1010;-66
2022/06/29 02:49:49;;;;;;;;;;;;;;;;;;5112262;28;844;-66
2022/06/29 02:52:14;;;;;;;;;;;;;;;;;;5114013;28;946;-67
2022/06/29 02:54:39;;;;;;;;;;;;;;;;;;5112479;28;1162;-66
2022/06/29 02:57:04;;;;;;;;;;;;;;;;;;5112101;28;1365;-67
2022/06/29 02:59:30;;;;;;;;;;;;;;;;;;5113611;28;840;-66
2022/06/29 03:01:55;;;;;;;;;;;;;;;;;;5094840;28;1965;-66
2022/06/29 03:04:20;;;;;;;;;;;;;;;;;;5111498;28;1198;-66
2022/06/29 03:06:46;;;;;;;;;;;;;;;;;;5111869;28;899;-66
2022/06/29 03:09:11;;;;;;;;;;;;;;;;;;5113504;28;765;-66
2022/06/29 03:11:37;;;;;;;;;;;;;;;;;;5094115;28;1455;-66
2022/06/29 03:14:02;;;;;;;;;;;;;;;;;;5112642;28;781;-66
2022/06/29 03:16:27;;;;;;;;;;;;;;;;;;5093191;28;1183;-66
2022/06/29 03:18:53;;;;;;;;;;;;;;;;;;5112741;28;816;-66
2022/06/29 03:21:18;;;;;;;;;;;;;;;;;;5112780;28;1910;-67
2022/06/29 03:23:44;;;;;;;;;;;;;;;;;;5112290;28;895;-66
2022/06/29 03:26:09;;;;;;;;;;;;;;;;;;5111210;28;859;-66
2022/06/29 03:28:35;;;;;;;;;;;;;;;;;;5111003;28;966;-67
2022/06/29 03:31:00;;;;;;;;;;;;;;;;;;5111041;28;1182;-67
2022/06/29 03:33:25;;;;;;;;;;;;;;;;;;5111836;28;1299;-67
2022/06/29 03:35:50;;;;;;;;;;;;;;;;;;5111958;28;1037;-66
2022/06/29 03:38:16;;;;;;;;;;;;;;;;;;5094171;28;1460;-67
2022/06/29 03:40:41;;;;;;;;;;;;;;;;;;5112387;28;1910;-67
2022/06/29 03:43:07;;;;;;;;;;;;;;;;;;5110374;28;1142;-67
2022/06/29 03:45:32;;;;;;;;;;;;;;;;;;5111816;28;836;-67
2022/06/29 03:47:57;;;;;;;;;;;;;;;;;;5110588;28;1186;-68
2022/06/29 03:50:22;;;;;;;;;;;;;;;;;;5111617;28;847;-67
2022/06/29 03:52:49;;;;;;;;;;;;;;;;;;5111988;28;872;-67
2022/06/29 03:55:14;;;;;;;;;;;;;;;;;;5110745;28;1201;-67
2022/06/29 03:57:39;;;;;;;;;;;;;;;;;;5111771;28;927;-67
2022/06/29 04:00:05;;;;;;;;;;;;;;;;;;5093132;28;1301;-67
2022/06/29 04:02:30;;;;;;;;;;;;;;;;;;5109615;28;1890;-67
2022/06/29 04:04:56;;;;;;;;;;;;;;;;;;5109547;28;1192;-67
2022/06/29 04:07:21;;;;;;;;;;;;;;;;;;5110548;28;1219;-67
2022/06/29 04:09:46;;;;;;;;;;;;;;;;;;5092407;28;1298;-67
2022/06/29 04:12:12;;;;;;;;;;;;;;;;;;5110037;28;1189;-67
2022/06/29 04:14:37;;;;;;;;;;;;;;;;;;5111659;28;852;-67
2022/06/29 04:17:02;;;;;;;;;;;;;;;;;;5108739;28;1280;-67
2022/06/29 04:19:28;;;;;;;;;;;;;;;;;;5109923;28;1139;-66
2022/06/29 04:21:54;;;;;;;;;;;;;;;;;;5110836;28;1963;-67
2022/06/29 04:24:20;;;;;;;;;;;;;;;;;;5109877;28;761;-67
2022/06/29 04:26:45;;;;;;;;;;;;;;;;;;5110943;28;1061;-67
2022/06/29 04:29:10;;;;;;;;;;;;;;;;;;5111574;28;1026;-67
2022/06/29 04:31:36;;;;;;;;;;;;;;;;;;5110470;28;820;-66
2022/06/29 04:34:02;;;;;;;;;;;;;;;;;;5111467;28;1247;-66
2022/06/29 04:36:28;;;;;;;;;;;;;;;;;;5110287;28;1238;-67
2022/06/29 04:38:54;;;;;;;;;;;;;;;;;;5111093;28;920;-66
2022/06/29 04:41:21;;;;;;;;;;;;;;;;;;5111385;28;1905;-67
2022/06/29 04:43:47;;;;;;;;;;;;;;;;;;5110597;28;1217;-66
2022/06/29 04:46:24;;;;;;;;;;;;;;;;;;5110854;28;935;-67
2022/06/29 04:48:52;;;;;;;;;;;;;;;;;;5110302;28;1183;-66
2022/06/29 04:51:17;;;;;;;;;;;;;;;;;;5111141;28;824;-66
2022/06/29 04:53:44;;;;;;;;;;;;;;;;;;5110753;28;828;-66
2022/06/29 04:56:09;;;;;;;;;;;;;;;;;;5111563;28;789;-66
2022/06/29 04:58:34;;;;;;;;;;;;;;;;;;5111133;28;821;-66
2022/06/29 05:01:00;;;;;;;;;;;;;;;;;;5110887;28;1972;-66
2022/06/29 05:03:25;;;;;;;;;;;;;;;;;;5109658;28;804;-66
2022/06/29 05:05:50;;;;;;;;;;;;;;;;;;5111378;28;839;-67
2022/06/29 05:08:16;;;;;;;;;;;;;;;;;;5109878;28;1170;-67
2022/06/29 05:10:41;;;;;;;;;;;;;;;;;;5110343;28;1166;-67
2022/06/29 05:13:10;;;;;;;;;;;;;;;;;;5110057;28;895;-67
2022/06/29 05:15:36;;;;;;;;;;;;;;;;;;5110446;28;840;-67
2022/06/29 05:18:01;;;;;;;;;;;;;;;;;;5111363;28;1061;-66
2022/06/29 05:20:26;;;;;;;;;;;;;;;;;;5110970;28;1168;-67
2022/06/29 05:22:52;;;;;;;;;;;;;;;;;;5111384;28;1963;-67
2022/06/29 05:25:17;;;;;;;;;;;;;;;;;;5109687;28;1241;-67
2022/06/29 05:27:42;;;;;;;;;;;;;;;;;;5110563;28;986;-66
2022/06/29 05:30:08;;;;;;;;;;;;;;;;;;5111234;28;820;-67
2022/06/29 05:32:35;;;;;;;;;;;;;;;;;;5111146;28;1022;-66
2022/06/29 05:35:00;;;;;;;;;;;;;;;;;;5112012;28;1095;-66
2022/06/29 05:37:26;;;;;;;;;;;;;;;;;;5112225;28;828;-66
2022/06/29 05:39:51;;;;;;;;;;;;;;;;;;5116245;28;931;-66
2022/06/29 05:42:16;;;;;;;;;;;;;;;;;;5115882;28;1941;-67
2022/06/29 05:44:42;;;;;;;;;;;;;;;;;;5116855;28;757;-66
2022/06/29 05:47:07;;;;;;;;;;;;;;;;;;5116799;28;904;-66
2022/06/29 05:49:36;;;;;;;;;;;;;;;;;;5115075;28;1069;-66
2022/06/29 05:52:02;;;;;;;;;;;;;;;;;;5115455;28;883;-66
2022/06/29 05:54:27;;;;;;;;;;;;;;;;;;5113697;28;1379;-67
2022/06/29 05:56:52;;;;;;;;;;;;;;;;;;5114520;28;1297;-66
2022/06/29 05:59:17;;;;;;;;;;;;;;;;;;5113467;28;1285;-67
2022/06/29 06:01:43;;;;;;;;;;;;;;;;;;5114302;28;1893;-67
2022/06/29 06:04:08;;;;;;;;;;;;;;;;;;5114507;28;950;-67
2022/06/29 06:06:33;;;;;;;;;;;;;;;;;;5114265;28;852;-67
2022/06/29 06:08:58;;;;;;;;;;;;;;;;;;5112842;28;860;-67
2022/06/29 06:11:24;;;;;;;;;;;;;;;;;;5113583;28;883;-67
2022/06/29 06:13:49;;;;;;;;;;;;;;;;;;5112461;28;1305;-67
2022/06/29 06:16:14;;;;;;;;;;;;;;;;;;5114229;28;891;-67
2022/06/29 06:18:39;;;;;;;;;;;;;;;;;;5114615;28;844;-67
2022/06/29 06:21:05;;;;;;;;;;;;;;;;;;5113378;28;1913;-67
2022/06/29 06:23:30;;;;;;;;;;;;;;;;;;5113695;27;770;-68
2022/06/29 06:25:55;;;;;;;;;;;;;;;;;;5096187;28;1408;-67
2022/06/29 06:28:20;;;;;;;;;;;;;;;;;;5114029;28;912;-67
2022/06/29 06:30:46;;;;;;;;;;;;;;;;;;5113307;28;919;-67
2022/06/29 06:33:11;;;;;;;;;;;;;;;;;;5113865;28;955;-67
2022/06/29 06:35:36;;;;;;;;;;;;;;;;;;5111876;28;1130;-67
2022/06/29 06:38:01;;;;;;;;;;;;;;;;;;5113573;28;895;-66
2022/06/29 06:43:12;;;;;;;;;;;;;;;;;;5114047;28;673;-66
2022/06/29 06:45:37;;;;;;;;;;;;;;;;;;5095038;28;1122;-66
2022/06/29 06:48:02;;;;;;;;;;;;;;;;;;5113455;28;1003;-67
2022/06/29 06:50:28;;;;;;;;;;;;;;;;;;5110456;28;1373;-67
2022/06/29 06:52:53;;;;;;;;;;;;;;;;;;5112606;28;895;-67
2022/06/29 06:55:18;;;;;;;;;;;;;;;;;;5094494;28;1292;-67
2022/06/29 06:57:43;;;;;;;;;;;;;;;;;;5113477;28;943;-66
2022/06/29 07:00:09;;;;;;;;;;;;;;;;;;5112584;28;1039;-67
2022/06/29 07:02:35;;;;;;;;;;;;;;;;;;5113029;27;1922;-67
2022/06/29 07:05:00;;;;;;;;;;;;;;;;;;5113125;28;1061;-67
2022/06/29 07:07:25;;;;;;;;;;;;;;;;;;5111627;28;762;-67
2022/06/29 07:09:51;;;;;;;;;;;;;;;;;;5112184;28;1006;-67
2022/06/29 07:12:16;;;;;;;;;;;;;;;;;;5111739;28;1098;-66
2022/06/29 07:14:41;;;;;;;;;;;;;;;;;;5113229;28;904;-67
2022/06/29 07:17:07;;;;;;;;;;;;;;;;;;5094874;28;1365;-67
2022/06/29 07:19:32;;;;;;;;;;;;;;;;;;5110851;28;1273;-67
2022/06/29 07:21:57;;;;;;;;;;;;;;;;;;5111374;28;1905;-67
2022/06/29 07:24:22;;;;;;;;;;;;;;;;;;5111292;28;1169;-67
2022/06/29 07:26:48;;;;;;;;;;;;;;;;;;5112625;28;1350;-67
2022/06/29 07:29:13;;;;;;;;;;;;;;;;;;5113445;28;1011;-67
2022/06/29 07:31:38;;;;;;;;;;;;;;;;;;5112509;28;943;-67
2022/06/29 07:34:04;;;;;;;;;;;;;;;;;;5110845;28;1286;-66
2022/06/29 07:36:29;;;;;;;;;;;;;;;;;;5108996;28;1325;-66
2022/06/29 07:38:55;;;;;;;;;;;;;;;;;;5112233;28;824;-66
2022/06/29 07:41:20;;;;;;;;;;;;;;;;;;5110891;28;1951;-66
2022/06/29 07:43:46;;;;;;;;;;;;;;;;;;5111494;28;1321;-66
2022/06/29 07:46:12;;;;;;;;;;;;;;;;;;5111336;28;1241;-66
2022/06/29 07:48:37;;;;;;;;;;;;;;;;;;5110950;28;1177;-66
2022/06/29 07:51:02;;;;;;;;;;;;;;;;;;5111348;28;1643;-66
2022/06/29 07:53:27;;;;;;;;;;;;;;;;;;5110362;28;808;-66
2022/06/29 07:55:53;;;;;;;;;;;;;;;;;;5111708;28;832;-67
2022/06/29 07:58:18;;;;;;;;;;;;;;;;;;5111417;28;876;-66
2022/06/29 08:00:44;;;;;;;;;;;;;;;;;;5110867;28;1190;-67
2022/06/29 08:03:10;;;;;;;;;;;;;;;;;;5113231;28;809;-67
2022/06/29 08:05:36;;;;;;;;;;;;;;;;;;5110842;28;1249;-67
2022/06/29 08:08:01;;;;;;;;;;;;;;;;;;5113373;28;765;-67
2022/06/29 08:10:27;;;;;;;;;;;;;;;;;;5112084;28;876;-67
2022/06/29 08:12:52;;;;;;;;;;;;;;;;;;5112683;28;919;-67
2022/06/29 08:15:18;;;;;;;;;;;;;;;;;;5112786;28;829;-67
2022/06/29 08:17:45;;;;;;;;;;;;;;;;;;5094180;28;1037;-67
2022/06/29 08:20:10;;;;;;;;;;;;;;;;;;5112793;28;828;-67
2022/06/29 08:22:36;;;;;;;;;;;;;;;;;;5109906;28;1910;-67
2022/06/29 08:25:01;;;;;;;;;;;;;;;;;;5093410;28;1147;-68
2022/06/29 08:27:27;;;;;;;;;;;;;;;;;;5111219;28;935;-67
2022/06/29 08:29:52;;;;;;;;;;;;;;;;;;5112138;28;887;-66
2022/06/29 08:32:17;;;;;;;;;;;;;;;;;;5110411;28;1046;-67
2022/06/29 08:34:43;;;;;;;;;;;;;;;;;;5110715;28;1131;-66
2022/06/29 08:37:08;;;;;;;;;;;;;;;;;;5111317;28;1049;-67
2022/06/29 08:39:33;;;;;;;;;;;;;;;;;;5110615;28;832;-67
2022/06/29 08:42:04;;;;;;;;;;;;;;;;;;5109897;28;1909;-67
2022/06/29 08:44:33;;;;;;;;;;;;;;;;;;5110361;28;985;-67
2022/06/29 08:47:00;;;;;;;;;;;;;;;;;;5111725;28;840;-67
2022/06/29 08:49:25;;;;;;;;;;;;;;;;;;5111197;28;966;-67
2022/06/29 08:51:51;;;;;;;;;;;;;;;;;;5093222;28;1421;-67
2022/06/29 08:54:17;;;;;;;;;;;;;;;;;;5109709;28;1443;-67
2022/06/29 08:56:43;;;;;;;;;;;;;;;;;;5109650;28;1380;-66
2022/06/29 08:59:09;;;;;;;;;;;;;;;;;;5111758;28;931;-67
2022/06/29 09:01:36;;;;;;;;;;;;;;;;;;5110175;28;1901;-67
2022/06/29 09:04:02;;;;;;;;;;;;;;;;;;5111132;28;938;-67
2022/06/29 09:06:27;;;;;;;;;;;;;;;;;;5110715;28;899;-67
2022/06/29 09:08:52;;;;;;;;;;;;;;;;;;5109925;28;868;-67
2022/06/29 09:11:21;;;;;;;;;;;;;;;;;;5111380;28;986;-66
2022/06/29 09:13:46;;;;;;;;;;;;;;;;;;5111625;28;915;-67
2022/06/29 09:16:12;;;;;;;;;;;;;;;;;;5115346;28;832;-66
2022/06/29 09:18:37;;;;;;;;;;;;;;;;;;5114578;28;840;-67
2022/06/29 09:21:03;;;;;;;;;;;;;;;;;;5113795;28;1882;-67
2022/06/29 09:23:29;;;;;;;;;;;;;;;;;;5114423;28;923;-67
2022/06/29 09:25:55;;;;;;;;;;;;;;;;;;5113243;28;860;-67
2022/06/29 09:28:21;;;;;;;;;;;;;;;;;;5114846;28;1014;-67
2022/06/29 09:30:47;;;;;;;;;;;;;;;;;;5113145;28;1218;-67
2022/06/29 09:33:12;;;;;;;;;;;;;;;;;;5115735;27;1229;-67
2022/06/29 09:35:39;;;;;;;;;;;;;;;;;;5113958;28;1119;-67
2022/06/29 09:38:17;;;;;;;;;;;;;;;;;;5115055;28;1135;-67
2022/06/29 09:41:02;;;;;;;;;;;;;;;;;;5120845;27;1080;-67
2022/06/29 09:43:28;;;;;;;;;;;;;;;;;;5133850;27;1340;-67
2022/06/29 09:45:56;;;;;;;;;;;;;;;;;;5113664;28;1237;-67
2022/06/29 09:48:23;;;;;;;;;;;;;;;;;;5113514;28;1221;-66
2022/06/29 09:50:52;;;;;;;;;;;;;;;;;;5114881;28;884;-66
2022/06/29 09:53:18;;;;;;;;;;;;;;;;;;5115068;28;918;-66
2022/06/29 09:55:45;;;;;;;;;;;;;;;;;;5114774;28;991;-66
2022/06/29 09:58:10;;;;;;;;;;;;;;;;;;5113869;28;1166;-66
2022/06/29 10:03:20;;;;;;;;;;;;;;;;;;5115808;28;695;-67
2022/06/29 10:05:54;;;;;;;;;;;;;;;;;;5112763;28;1058;-66
2022/06/29 10:08:19;;;;;;;;;;;;;;;;;;5113219;28;820;-67
2022/06/29 10:10:48;;;;;;;;;;;;;;;;;;5112506;28;1373;-67
2022/06/29 10:16:10;;;;;;;;;;;;;;;;;;5113701;28;638;-67
2022/06/29 10:18:44;;;;;;;;;;;;;;;;;;5113971;28;911;-67
2022/06/29 10:21:14;;;;;;;;;;;;;;;;;;5112504;28;1909;-67
2022/06/29 10:23:43;;;;;;;;;;;;;;;;;;5112360;28;1408;-67
2022/06/29 10:26:39;;;;;;;;;;;;;;;;;;5112416;28;1348;-67
2022/06/29 10:29:05;;;;;;;;;;;;;;;;;;5104820;27;1341;-66
2022/06/29 10:31:49;;;;;;;;;;;;;;;;;;5113728;28;877;-65
2022/06/29 10:34:41;;;;;;;;;;;;;;;;;;5113487;28;1180;-67
2022/06/29 10:37:11;;;;;;;;;;;;;;;;;;5112445;28;1423;-67
2022/06/29 10:39:44;;;;;;;;;;;;;;;;;;5112191;28;999;-67
2022/06/29 10:45:16;;;;;;;;;;;;;;;;;;5113369;28;703;-66
2022/06/29 10:47:48;;;;;;;;;;;;;;;;;;5113453;28;922;-66
2022/06/29 10:50:13;;;;;;;;;;;;;;;;;;5112111;28;1352;-66
2022/06/29 10:52:39;;;;;;;;;;;;;;;;;;5114368;28;757;-66
2022/06/29 10:55:04;;;;;;;;;;;;;;;;;;5112378;28;1257;-66
2022/06/29 10:57:42;;;;;;;;;;;;;;;;;;5095238;28;1407;-66
2022/06/29 11:00:09;;;;;;;;;;;;;;;;;;5113987;28;761;-66
2022/06/29 11:02:35;;;;;;;;;;;;;;;;;;5113392;28;1974;-66
2022/06/29 11:05:00;;;;;;;;;;;;;;;;;;5113706;28;868;-65
2022/06/29 11:12:54;;;;;;;;;;;;;;;;;;5112978;28;670;-66
2022/06/29 11:15:41;;;;;;;;;;;;;;;;;;5113084;28;939;-66
2022/06/29 11:18:17;;;;;;;;;;;;;;;;;;5111323;28;1550;-66
2022/06/29 11:20:44;;;;;;;;;;;;;;;;;;5112475;28;896;-67
2022/06/29 11:23:10;;;;;;;;;;;;;;;;;;5111316;28;1902;-66
2022/06/29 11:25:36;;;;;;;;;;;;;;;;;;5110902;28;1218;-67
2022/06/29 11:28:01;;;;;;;;;;;;;;;;;;5111183;28;1300;-66
2022/06/29 11:30:27;;;;;;;;;;;;;;;;;;5111337;28;1225;-67
2022/06/29 11:32:52;;;;;;;;;;;;;;;;;;5111271;28;1326;-66
2022/06/29 11:35:22;;;;;;;;;;;;;;;;;;5112333;28;1348;-67
2022/06/29 11:37:48;;;;;;;;;;;;;;;;;;5112866;28;841;-66
2022/06/29 11:40:13;;;;;;;;;;;;;;;;;;5112627;28;1009;-66
2022/06/29 11:45:28;;;;;;;;;;;;;;;;;;5114046;28;825;-66
2022/06/29 11:47:54;;;;;;;;;;;;;;;;;;5113798;28;907;-66
2022/06/29 11:50:20;;;;;;;;;;;;;;;;;;5114563;28;883;-65
2022/06/29 11:52:47;;;;;;;;;;;;;;;;;;5113745;28;802;-66
2022/06/29 11:55:12;;;;;;;;;;;;;;;;;;5112500;28;805;-66
2022/06/29 11:57:37;;;;;;;;;;;;;;;;;;5113265;28;805;-66
2022/06/29 12:00:04;;;;;;;;;;;;;;;;;;5112228;28;1115;-66
2022/06/29 12:02:35;;;;;;;;;;;;;;;;;;5112623;28;1920;-67
2022/06/29 12:05:01;;;;;;;;;;;;;;;;;;5112514;28;840;-66
2022/06/29 12:07:30;;;;;;;;;;;;;;;;;;5110710;28;1377;-66
2022/06/29 12:09:57;;;;;;;;;;;;;;;;;;5112022;28;840;-66
2022/06/29 12:12:22;;;;;;;;;;;;;;;;;;5111897;28;923;-66
2022/06/29 12:14:48;;;;;;;;;;;;;;;;;;5111523;28;990;-66
2022/06/29 12:17:13;;;;;;;;;;;;;;;;;;5112029;28;836;-66
2022/06/29 12:19:39;;;;;;;;;;;;;;;;;;5111417;28;832;-66
2022/06/29 12:22:04;;;;;;;;;;;;;;;;;;5111560;28;1980;-66
2022/06/29 12:24:30;;;;;;;;;;;;;;;;;;5111462;28;813;-66
2022/06/29 12:26:55;;;;;;;;;;;;;;;;;;5111555;28;848;-66
2022/06/29 12:29:21;;;;;;;;;;;;;;;;;;5093058;28;1368;-66
2022/06/29 12:31:47;;;;;;;;;;;;;;;;;;5111806;28;840;-66
2022/06/29 12:34:13;;;;;;;;;;;;;;;;;;5111134;28;1052;-66
2022/06/29 12:36:38;;;;;;;;;;;;;;;;;;5109656;28;1238;-67
2022/06/29 12:39:04;;;;;;;;;;;;;;;;;;5109856;28;1256;-66
2022/06/29 12:41:29;;;;;;;;;;;;;;;;;;5111107;28;1894;-67
2022/06/29 12:43:54;;;;;;;;;;;;;;;;;;5111157;28;1190;-67
2022/06/29 12:46:20;;;;;;;;;;;;;;;;;;5110718;28;855;-66
2022/06/29 12:48:45;;;;;;;;;;;;;;;;;;5109860;28;1068;-67
2022/06/29 12:51:10;;;;;;;;;;;;;;;;;;5110002;28;750;-67
2022/06/29 12:53:36;;;;;;;;;;;;;;;;;;5110646;28;840;-67
2022/06/29 12:56:01;;;;;;;;;;;;;;;;;;5110511;28;899;-67
2022/06/29 12:58:27;;;;;;;;;;;;;;;;;;5110969;28;820;-67
2022/06/29 13:00:52;;;;;;;;;;;;;;;;;;5110622;28;789;-67
2022/06/29 13:03:17;;;;;;;;;;;;;;;;;;5110718;28;1910;-67
2022/06/29 13:05:43;;;;;;;;;;;;;;;;;;5109815;28;1139;-67
2022/06/29 13:08:08;;;;;;;;;;;;;;;;;;5111212;28;840;-67
2022/06/29 13:10:33;;;;;;;;;;;;;;;;;;5110927;28;800;-67
2022/06/29 13:13:00;;;;;;;;;;;;;;;;;;5110923;28;887;-66
2022/06/29 13:15:25;;;;;;;;;;;;;;;;;;5109480;28;1209;-67
2022/06/29 13:17:51;;;;;;;;;;;;;;;;;;5110743;28;970;-67
2022/06/29 13:20:16;;;;;;;;;;;;;;;;;;5110835;28;954;-67
2022/06/29 13:22:42;;;;;;;;;;;;;;;;;;5111227;28;1905;-66
2022/06/29 13:25:08;;;;;;;;;;;;;;;;;;5111417;28;847;-67
2022/06/29 13:27:33;;;;;;;;;;;;;;;;;;5111036;28;915;-66
2022/06/29 13:29:59;;;;;;;;;;;;;;;;;;5111577;28;883;-67
2022/06/29 13:32:24;;;;;;;;;;;;;;;;;;5111254;28;785;-67
2022/06/29 13:34:49;;;;;;;;;;;;;;;;;;5111029;28;1302;-65
2022/06/29 13:37:15;;;;;;;;;;;;;;;;;;5110973;28;860;-65
2022/06/29 13:39:40;;;;;;;;;;;;;;;;;;5110169;28;841;-65
2022/06/29 13:42:07;;;;;;;;;;;;;;;;;;5110415;28;1971;-65
2022/06/29 13:44:32;;;;;;;;;;;;;;;;;;5109967;28;840;-65
2022/06/29 13:46:58;;;;;;;;;;;;;;;;;;5110715;28;840;-66
2022/06/29 13:49:24;;;;;;;;;;;;;;;;;;5109158;28;923;-65
2022/06/29 13:51:50;;;;;;;;;;;;;;;;;;5110516;28;962;-65
2022/06/29 13:54:15;;;;;;;;;;;;;;;;;;5108952;28;1197;-65
2022/06/29 13:56:40;;;;;;;;;;;;;;;;;;5111098;28;911;-65
2022/06/29 13:59:06;;;;;;;;;;;;;;;;;;5109631;28;844;-66
2022/06/29 14:01:31;;;;;;;;;;;;;;;;;;5113976;28;1961;-66
2022/06/29 14:03:57;;;;;;;;;;;;;;;;;;5114614;28;904;-66
2022/06/29 14:06:23;;;;;;;;;;;;;;;;;;5114287;28;852;-67
2022/06/29 14:08:48;;;;;;;;;;;;;;;;;;5112417;28;1170;-67
2022/06/29 14:11:14;;;;;;;;;;;;;;;;;;5112885;28;1391;-67
2022/06/29 14:13:39;;;;;;;;;;;;;;;;;;5114284;27;860;-67
2022/06/29 14:16:04;;;;;;;;;;;;;;;;;;5112791;28;1236;-68
2022/06/29 14:18:29;;;;;;;;;;;;;;;;;;5112406;28;848;-67
2022/06/29 14:20:57;;;;;;;;;;;;;;;;;;5112372;28;1258;-67
2022/06/29 14:23:23;;;;;;;;;;;;;;;;;;5114354;28;1901;-67
2022/06/29 14:25:50;;;;;;;;;;;;;;;;;;5114087;28;831;-67
2022/06/29 14:28:15;;;;;;;;;;;;;;;;;;5112367;28;1348;-67
2022/06/29 14:30:41;;;;;;;;;;;;;;;;;;5114044;28;804;-67
2022/06/29 14:33:06;;;;;;;;;;;;;;;;;;5114428;28;808;-67
2022/06/29 14:35:31;;;;;;;;;;;;;;;;;;5113103;28;1203;-67
2022/06/29 14:37:56;;;;;;;;;;;;;;;;;;5112004;28;1377;-67
2022/06/29 14:40:22;;;;;;;;;;;;;;;;;;5113544;28;991;-67
2022/06/29 14:42:47;;;;;;;;;;;;;;;;;;5111905;28;1913;-67
2022/06/29 14:45:12;;;;;;;;;;;;;;;;;;5113645;28;935;-67
2022/06/29 14:47:37;;;;;;;;;;;;;;;;;;5112022;28;840;-67
2022/06/29 14:50:03;;;;;;;;;;;;;;;;;;5113056;27;1108;-66
2022/06/29 14:52:30;;;;;;;;;;;;;;;;;;5126920;27;1206;-67
2022/06/29 14:54:55;;;;;;;;;;;;;;;;;;5134301;27;990;-66
2022/06/29 14:57:21;;;;;;;;;;;;;;;;;;5134501;27;982;-67
2022/06/29 14:59:47;;;;;;;;;;;;;;;;;;5134211;27;907;-67
2022/06/29 15:02:12;;;;;;;;;;;;;;;;;;5134742;27;1901;-67
2022/06/29 15:04:38;;;;;;;;;;;;;;;;;;5133704;27;1166;-67
2022/06/29 15:07:04;;;;;;;;;;;;;;;;;;5131230;27;1143;-68
2022/06/29 15:09:33;;;;;;;;;;;;;;;;;;5131739;27;1276;-67
2022/06/29 15:11:59;;;;;;;;;;;;;;;;;;5133654;27;910;-67
2022/06/29 15:14:24;;;;;;;;;;;;;;;;;;5132889;27;883;-68
2022/06/29 15:16:49;;;;;;;;;;;;;;;;;;5132439;27;1316;-68
2022/06/29 15:19:14;;;;;;;;;;;;;;;;;;5133958;27;753;-68
2022/06/29 15:21:40;;;;;;;;;;;;;;;;;;5131644;27;1893;-67
2022/06/29 15:24:05;;;;;;;;;;;;;;;;;;5130447;27;1155;-67
2022/06/29 15:26:31;;;;;;;;;;;;;;;;;;5112866;28;1252;-67
2022/06/29 15:28:56;;;;;;;;;;;;;;;;;;5108922;27;1226;-68
2022/06/29 15:31:21;;;;;;;;;;;;;;;;;;5132011;27;1159;-67
2022/06/29 15:39:14;;;;;;;;;;;;;;;;;;5132192;27;607;-68
2022/06/29 15:41:39;;;;;;;;;;;;;;;;;;5114710;27;1902;-67
2022/06/29 15:44:05;;;;;;;;;;;;;;;;;;5132330;27;836;-66
2022/06/29 15:46:32;;;;;;;;;;;;;;;;;;5132158;27;871;-67
2022/06/29 15:48:57;;;;;;;;;;;;;;;;;;5132394;27;825;-68
2022/06/29 15:51:22;;;;;;;;;;;;;;;;;;5133652;27;868;-67
2022/06/29 15:56:31;;;;;;;;;;;;;;;;;;5131229;27;697;-66
2022/06/29 15:58:56;;;;;;;;;;;;;;;;;;5130208;27;983;-66
2022/06/29 16:01:22;;;;;;;;;;;;;;;;;;5132638;27;1897;-66
2022/06/29 16:03:47;;;;;;;;;;;;;;;;;;5132465;27;841;-66
2022/06/29 16:06:12;;;;;;;;;;;;;;;;;;5132516;27;904;-67
2022/06/29 16:08:38;;;;;;;;;;;;;;;;;;5130791;27;1296;-67
2022/06/29 16:11:03;;;;;;;;;;;;;;;;;;5131411;27;1010;-67
2022/06/29 16:13:28;;;;;;;;;;;;;;;;;;5133283;27;924;-67
2022/06/29 16:15:53;;;;;;;;;;;;;;;;;;5132255;27;800;-67
2022/06/29 16:18:19;;;;;;;;;;;;;;;;;;5133038;27;843;-67
2022/06/29 16:20:44;;;;;;;;;;;;;;;;;;5132234;27;919;-67
2022/06/29 16:23:09;;;;;;;;;;;;;;;;;;5132736;27;1901;-67
2022/06/29 16:25:34;;;;;;;;;;;;;;;;;;5132299;27;935;-67
2022/06/29 16:28:00;;;;;;;;;;;;;;;;;;5114001;27;1408;-67
2022/06/29 16:30:25;;;;;;;;;;;;;;;;;;5131801;27;848;-67
2022/06/29 16:32:51;;;;;;;;;;;;;;;;;;5132177;27;911;-67
2022/06/29 16:35:16;;;;;;;;;;;;;;;;;;5132082;27;1248;-66
2022/06/29 16:37:41;;;;;;;;;;;;;;;;;;5130339;27;1232;-66
2022/06/29 16:40:07;;;;;;;;;;;;;;;;;;5132436;27;609;-66
2022/06/29 16:42:32;;;;;;;;;;;;;;;;;;5131815;27;1971;-66
2022/06/29 16:45:00;;;;;;;;;;;;;;;;;;5132720;27;1006;-66
2022/06/29 16:47:27;;;;;;;;;;;;;;;;;;5131354;27;1433;-66
2022/06/29 16:49:53;;;;;;;;;;;;;;;;;;5132451;27;914;-66
2022/06/29 16:52:18;;;;;;;;;;;;;;;;;;5131090;27;1368;-67
2022/06/29 16:54:43;;;;;;;;;;;;;;;;;;5132978;27;1388;-67
2022/06/29 16:57:08;;;;;;;;;;;;;;;;;;5136167;27;969;-67
2022/06/29 16:59:36;;;;;;;;;;;;;;;;;;5131390;27;1169;-66
2022/06/29 17:02:01;;;;;;;;;;;;;;;;;;5132829;27;1901;-66
2022/06/29 17:04:26;;;;;;;;;;;;;;;;;;5132655;27;1129;-66
2022/06/29 17:06:52;;;;;;;;;;;;;;;;;;5132294;27;899;-66
2022/06/29 17:09:17;;;;;;;;;;;;;;;;;;5133034;28;1006;-66
2022/06/29 17:11:43;;;;;;;;;;;;;;;;;;5130967;27;793;-66
2022/06/29 17:14:08;;;;;;;;;;;;;;;;;;5132457;27;966;-67
2022/06/29 17:16:33;;;;;;;;;;;;;;;;;;5132500;27;1008;-66
2022/06/29 17:18:58;;;;;;;;;;;;;;;;;;5130391;28;1216;-68
2022/06/29 17:21:25;;;;;;;;;;;;;;;;;;5131015;27;1902;-68
2022/06/29 17:23:50;;;;;;;;;;;;;;;;;;5130709;28;1233;-68
2022/06/29 17:26:16;;;;;;;;;;;;;;;;;;5132454;28;836;-68
2022/06/29 17:28:41;;;;;;;;;;;;;;;;;;5130587;28;1133;-67
2022/06/29 17:31:09;;;;;;;;;;;;;;;;;;5132038;27;943;-67
2022/06/29 17:33:34;;;;;;;;;;;;;;;;;;5132353;27;1369;-65
2022/06/29 17:35:59;;;;;;;;;;;;;;;;;;5116798;27;1215;-68